sensor_id;sensor_type;location;lat;lon;timestamp;P1;durP1;ratioP1;P2;durP2;ratioP2
49392;SDS011;35268;42.642;23.308;2023-04-15T00:02:22;10.80;;;3.72;;
49392;SDS011;35268;42.642;23.308;2023-04-15T00:04:47;15.07;;;4.35;;
49392;SDS011;35268;42.642;23.308;2023-04-15T00:07:13;10.75;;;4.18;;
49392;SDS011;35268;42.642;23.308;2023-04-15T00:09:39;9.70;;;4.13;;
49392;SDS011;35268;42.642;23.308;2023-04-15T00:12:05;9.23;;;3.65;;
49392;SDS011;35268;42.642;23.308;2023-04-15T00:14:32;8.05;;;3.17;;
49392;SDS011;35268;42.642;23.308;2023-04-15T00:16:59;8.82;;;2.88;;
49392;SDS011;35268;42.642;23.308;2023-04-15T00:19:25;9.23;;;3.20;;
49392;SDS011;35268;42.642;23.308;2023-04-15T00:21:50;6.05;;;2.38;;
49392;SDS011;35268;42.642;23.308;2023-04-15T00:24:16;6.65;;;3.20;;
49392;SDS011;35268;42.642;23.308;2023-04-15T00:26:41;12.13;;;2.80;;
49392;SDS011;35268;42.642;23.308;2023-04-15T00:29:07;8.18;;;3.30;;
49392;SDS011;35268;42.642;23.308;2023-04-15T00:31:32;7.60;;;3.00;;
49392;SDS011;35268;42.642;23.308;2023-04-15T00:33:58;6.28;;;2.40;;
49392;SDS011;35268;42.642;23.308;2023-04-15T00:36:24;6.45;;;2.95;;
49392;SDS011;35268;42.642;23.308;2023-04-15T00:38:50;5.32;;;2.13;;
49392;SDS011;35268;42.642;23.308;2023-04-15T00:41:15;8.52;;;2.85;;
49392;SDS011;35268;42.642;23.308;2023-04-15T00:43:43;8.32;;;3.40;;
49392;SDS011;35268;42.642;23.308;2023-04-15T00:46:08;9.13;;;3.15;;
49392;SDS011;35268;42.642;23.308;2023-04-15T00:48:36;4.57;;;2.38;;
49392;SDS011;35268;42.642;23.308;2023-04-15T00:51:03;8.60;;;2.60;;
49392;SDS011;35268;42.642;23.308;2023-04-15T00:53:28;7.30;;;3.00;;
49392;SDS011;35268;42.642;23.308;2023-04-15T00:55:54;7.63;;;2.42;;
49392;SDS011;35268;42.642;23.308;2023-04-15T00:58:20;6.43;;;2.33;;
49392;SDS011;35268;42.642;23.308;2023-04-15T01:00:45;6.78;;;2.80;;
49392;SDS011;35268;42.642;23.308;2023-04-15T01:03:12;6.13;;;2.88;;
49392;SDS011;35268;42.642;23.308;2023-04-15T01:05:38;5.53;;;2.58;;
49392;SDS011;35268;42.642;23.308;2023-04-15T01:08:04;5.78;;;2.53;;
49392;SDS011;35268;42.642;23.308;2023-04-15T01:10:30;6.47;;;2.25;;
49392;SDS011;35268;42.642;23.308;2023-04-15T01:12:55;4.30;;;1.90;;
49392;SDS011;35268;42.642;23.308;2023-04-15T01:15:21;5.07;;;2.05;;
49392;SDS011;35268;42.642;23.308;2023-04-15T01:17:47;4.25;;;1.90;;
49392;SDS011;35268;42.642;23.308;2023-04-15T01:20:13;8.65;;;2.45;;
49392;SDS011;35268;42.642;23.308;2023-04-15T01:22:39;6.55;;;1.80;;
49392;SDS011;35268;42.642;23.308;2023-04-15T01:25:08;5.28;;;1.83;;
49392;SDS011;35268;42.642;23.308;2023-04-15T01:27:36;10.30;;;2.00;;
49392;SDS011;35268;42.642;23.308;2023-04-15T01:30:04;4.47;;;1.90;;
49392;SDS011;35268;42.642;23.308;2023-04-15T01:32:31;7.75;;;2.35;;
49392;SDS011;35268;42.642;23.308;2023-04-15T01:34:56;7.82;;;2.10;;
49392;SDS011;35268;42.642;23.308;2023-04-15T01:37:22;4.05;;;1.85;;
49392;SDS011;35268;42.642;23.308;2023-04-15T01:39:48;5.28;;;1.90;;
49392;SDS011;35268;42.642;23.308;2023-04-15T01:42:14;4.68;;;1.63;;
49392;SDS011;35268;42.642;23.308;2023-04-15T01:44:39;7.50;;;1.88;;
49392;SDS011;35268;42.642;23.308;2023-04-15T01:47:05;4.80;;;2.28;;
49392;SDS011;35268;42.642;23.308;2023-04-15T01:49:30;3.55;;;1.65;;
49392;SDS011;35268;42.642;23.308;2023-04-15T01:51:56;6.63;;;2.10;;
49392;SDS011;35268;42.642;23.308;2023-04-15T01:54:22;5.35;;;1.88;;
49392;SDS011;35268;42.642;23.308;2023-04-15T01:56:47;6.80;;;2.25;;
49392;SDS011;35268;42.642;23.308;2023-04-15T01:59:13;7.07;;;1.83;;
49392;SDS011;35268;42.642;23.308;2023-04-15T02:01:38;4.20;;;1.95;;
49392;SDS011;35268;42.642;23.308;2023-04-15T02:04:05;3.55;;;1.25;;
49392;SDS011;35268;42.642;23.308;2023-04-15T02:06:31;5.10;;;1.70;;
49392;SDS011;35268;42.642;23.308;2023-04-15T02:08:56;5.90;;;2.10;;
49392;SDS011;35268;42.642;23.308;2023-04-15T02:11:23;6.95;;;1.90;;
49392;SDS011;35268;42.642;23.308;2023-04-15T02:13:48;7.68;;;2.47;;
49392;SDS011;35268;42.642;23.308;2023-04-15T02:16:14;5.28;;;1.90;;
49392;SDS011;35268;42.642;23.308;2023-04-15T02:18:41;5.60;;;1.90;;
49392;SDS011;35268;42.642;23.308;2023-04-15T02:21:08;7.82;;;2.30;;
49392;SDS011;35268;42.642;23.308;2023-04-15T02:23:33;5.32;;;1.80;;
49392;SDS011;35268;42.642;23.308;2023-04-15T02:25:59;12.35;;;3.72;;
49392;SDS011;35268;42.642;23.308;2023-04-15T02:28:24;7.65;;;3.40;;
49392;SDS011;35268;42.642;23.308;2023-04-15T02:30:51;8.40;;;3.25;;
49392;SDS011;35268;42.642;23.308;2023-04-15T02:33:18;7.47;;;2.03;;
49392;SDS011;35268;42.642;23.308;2023-04-15T02:35:44;5.90;;;2.78;;
49392;SDS011;35268;42.642;23.308;2023-04-15T02:38:10;4.63;;;2.05;;
49392;SDS011;35268;42.642;23.308;2023-04-15T02:40:35;5.65;;;1.70;;
49392;SDS011;35268;42.642;23.308;2023-04-15T02:43:01;4.70;;;1.50;;
49392;SDS011;35268;42.642;23.308;2023-04-15T02:45:27;4.53;;;1.65;;
49392;SDS011;35268;42.642;23.308;2023-04-15T02:47:53;7.43;;;2.60;;
49392;SDS011;35268;42.642;23.308;2023-04-15T02:50:18;4.85;;;2.08;;
49392;SDS011;35268;42.642;23.308;2023-04-15T02:52:45;8.18;;;2.53;;
49392;SDS011;35268;42.642;23.308;2023-04-15T02:55:10;6.65;;;2.20;;
49392;SDS011;35268;42.642;23.308;2023-04-15T02:57:36;4.85;;;2.50;;
49392;SDS011;35268;42.642;23.308;2023-04-15T03:00:03;6.07;;;2.45;;
49392;SDS011;35268;42.642;23.308;2023-04-15T03:02:33;5.88;;;2.28;;
49392;SDS011;35268;42.642;23.308;2023-04-15T03:05:05;4.38;;;2.40;;
49392;SDS011;35268;42.642;23.308;2023-04-15T03:07:31;4.80;;;2.92;;
49392;SDS011;35268;42.642;23.308;2023-04-15T03:09:56;9.13;;;3.20;;
49392;SDS011;35268;42.642;23.308;2023-04-15T03:12:22;8.98;;;2.78;;
49392;SDS011;35268;42.642;23.308;2023-04-15T03:14:47;6.95;;;3.05;;
49392;SDS011;35268;42.642;23.308;2023-04-15T03:17:13;6.32;;;3.30;;
49392;SDS011;35268;42.642;23.308;2023-04-15T03:19:38;4.32;;;1.88;;
49392;SDS011;35268;42.642;23.308;2023-04-15T03:22:04;6.47;;;2.17;;
49392;SDS011;35268;42.642;23.308;2023-04-15T03:24:29;7.72;;;2.75;;
49392;SDS011;35268;42.642;23.308;2023-04-15T03:26:55;5.18;;;2.30;;
49392;SDS011;35268;42.642;23.308;2023-04-15T03:29:22;8.23;;;2.17;;
49392;SDS011;35268;42.642;23.308;2023-04-15T03:31:48;5.00;;;2.20;;
49392;SDS011;35268;42.642;23.308;2023-04-15T03:34:13;4.70;;;2.45;;
49392;SDS011;35268;42.642;23.308;2023-04-15T03:36:39;4.90;;;1.90;;
49392;SDS011;35268;42.642;23.308;2023-04-15T03:39:04;8.13;;;2.50;;
49392;SDS011;35268;42.642;23.308;2023-04-15T03:41:30;10.27;;;2.78;;
49392;SDS011;35268;42.642;23.308;2023-04-15T03:43:56;7.93;;;2.30;;
49392;SDS011;35268;42.642;23.308;2023-04-15T03:46:22;6.75;;;2.42;;
49392;SDS011;35268;42.642;23.308;2023-04-15T03:48:47;7.63;;;3.63;;
49392;SDS011;35268;42.642;23.308;2023-04-15T03:51:13;12.93;;;4.63;;
49392;SDS011;35268;42.642;23.308;2023-04-15T03:53:38;10.35;;;3.97;;
49392;SDS011;35268;42.642;23.308;2023-04-15T03:56:04;11.60;;;3.78;;
49392;SDS011;35268;42.642;23.308;2023-04-15T03:58:29;8.07;;;3.80;;
49392;SDS011;35268;42.642;23.308;2023-04-15T04:00:55;6.72;;;3.42;;
49392;SDS011;35268;42.642;23.308;2023-04-15T04:03:21;10.00;;;3.70;;
49392;SDS011;35268;42.642;23.308;2023-04-15T04:05:46;9.23;;;3.05;;
49392;SDS011;35268;42.642;23.308;2023-04-15T04:08:11;7.90;;;3.42;;
49392;SDS011;35268;42.642;23.308;2023-04-15T04:10:40;10.48;;;4.57;;
49392;SDS011;35268;42.642;23.308;2023-04-15T04:13:06;10.85;;;4.35;;
49392;SDS011;35268;42.642;23.308;2023-04-15T04:15:31;11.02;;;4.85;;
49392;SDS011;35268;42.642;23.308;2023-04-15T04:17:57;11.00;;;4.38;;
49392;SDS011;35268;42.642;23.308;2023-04-15T04:20:22;7.53;;;3.95;;
49392;SDS011;35268;42.642;23.308;2023-04-15T04:22:48;8.05;;;3.53;;
49392;SDS011;35268;42.642;23.308;2023-04-15T04:25:14;10.10;;;4.15;;
49392;SDS011;35268;42.642;23.308;2023-04-15T04:27:40;11.95;;;4.85;;
49392;SDS011;35268;42.642;23.308;2023-04-15T04:30:06;8.57;;;2.92;;
49392;SDS011;35268;42.642;23.308;2023-04-15T04:32:33;11.18;;;3.90;;
49392;SDS011;35268;42.642;23.308;2023-04-15T04:34:58;8.55;;;4.13;;
49392;SDS011;35268;42.642;23.308;2023-04-15T04:37:24;11.20;;;3.92;;
49392;SDS011;35268;42.642;23.308;2023-04-15T04:39:49;13.57;;;4.78;;
49392;SDS011;35268;42.642;23.308;2023-04-15T04:42:15;10.85;;;4.20;;
49392;SDS011;35268;42.642;23.308;2023-04-15T04:44:40;9.45;;;4.72;;
49392;SDS011;35268;42.642;23.308;2023-04-15T04:47:06;11.63;;;4.88;;
49392;SDS011;35268;42.642;23.308;2023-04-15T04:49:31;9.18;;;4.40;;
49392;SDS011;35268;42.642;23.308;2023-04-15T04:51:57;7.35;;;3.40;;
49392;SDS011;35268;42.642;23.308;2023-04-15T04:54:23;12.63;;;4.07;;
49392;SDS011;35268;42.642;23.308;2023-04-15T04:56:48;16.17;;;4.10;;
49392;SDS011;35268;42.642;23.308;2023-04-15T04:59:14;9.95;;;4.15;;
49392;SDS011;35268;42.642;23.308;2023-04-15T05:01:39;9.27;;;4.18;;
49392;SDS011;35268;42.642;23.308;2023-04-15T05:04:05;16.85;;;5.00;;
49392;SDS011;35268;42.642;23.308;2023-04-15T05:06:31;10.98;;;5.03;;
49392;SDS011;35268;42.642;23.308;2023-04-15T05:08:57;9.32;;;4.68;;
49392;SDS011;35268;42.642;23.308;2023-04-15T05:11:23;14.13;;;5.43;;
49392;SDS011;35268;42.642;23.308;2023-04-15T05:13:48;14.50;;;5.70;;
49392;SDS011;35268;42.642;23.308;2023-04-15T05:16:14;12.60;;;4.68;;
49392;SDS011;35268;42.642;23.308;2023-04-15T05:18:39;10.02;;;5.65;;
49392;SDS011;35268;42.642;23.308;2023-04-15T05:21:05;10.05;;;5.15;;
49392;SDS011;35268;42.642;23.308;2023-04-15T05:23:30;18.17;;;5.53;;
49392;SDS011;35268;42.642;23.308;2023-04-15T05:25:56;12.32;;;5.55;;
49392;SDS011;35268;42.642;23.308;2023-04-15T05:28:21;9.05;;;4.43;;
49392;SDS011;35268;42.642;23.308;2023-04-15T05:30:47;9.07;;;4.72;;
49392;SDS011;35268;42.642;23.308;2023-04-15T05:33:12;11.52;;;4.43;;
49392;SDS011;35268;42.642;23.308;2023-04-15T05:35:38;8.57;;;4.68;;
49392;SDS011;35268;42.642;23.308;2023-04-15T05:38:03;10.05;;;4.97;;
49392;SDS011;35268;42.642;23.308;2023-04-15T05:40:29;8.85;;;4.80;;
49392;SDS011;35268;42.642;23.308;2023-04-15T05:42:55;16.02;;;5.68;;
49392;SDS011;35268;42.642;23.308;2023-04-15T05:45:20;9.10;;;4.45;;
49392;SDS011;35268;42.642;23.308;2023-04-15T05:47:46;8.95;;;4.75;;
49392;SDS011;35268;42.642;23.308;2023-04-15T05:50:11;12.20;;;4.28;;
49392;SDS011;35268;42.642;23.308;2023-04-15T05:52:37;9.70;;;4.38;;
49392;SDS011;35268;42.642;23.308;2023-04-15T05:55:02;9.50;;;4.28;;
49392;SDS011;35268;42.642;23.308;2023-04-15T05:57:28;11.48;;;4.68;;
49392;SDS011;35268;42.642;23.308;2023-04-15T05:59:53;12.50;;;4.45;;
49392;SDS011;35268;42.642;23.308;2023-04-15T06:02:21;12.30;;;5.63;;
49392;SDS011;35268;42.642;23.308;2023-04-15T06:04:46;9.77;;;4.35;;
49392;SDS011;35268;42.642;23.308;2023-04-15T06:07:12;14.82;;;5.47;;
49392;SDS011;35268;42.642;23.308;2023-04-15T06:09:37;10.65;;;5.03;;
49392;SDS011;35268;42.642;23.308;2023-04-15T06:12:03;10.07;;;5.15;;
49392;SDS011;35268;42.642;23.308;2023-04-15T06:14:30;8.95;;;5.07;;
49392;SDS011;35268;42.642;23.308;2023-04-15T06:16:55;13.13;;;4.50;;
49392;SDS011;35268;42.642;23.308;2023-04-15T06:19:21;7.85;;;3.88;;
49392;SDS011;35268;42.642;23.308;2023-04-15T06:21:46;7.95;;;4.13;;
49392;SDS011;35268;42.642;23.308;2023-04-15T06:24:12;10.65;;;4.25;;
49392;SDS011;35268;42.642;23.308;2023-04-15T06:26:37;7.65;;;3.70;;
49392;SDS011;35268;42.642;23.308;2023-04-15T06:29:03;7.15;;;3.60;;
49392;SDS011;35268;42.642;23.308;2023-04-15T06:31:28;6.22;;;2.80;;
49392;SDS011;35268;42.642;23.308;2023-04-15T06:33:54;10.93;;;3.33;;
49392;SDS011;35268;42.642;23.308;2023-04-15T06:36:20;6.78;;;2.70;;
49392;SDS011;35268;42.642;23.308;2023-04-15T06:38:45;7.35;;;2.85;;
49392;SDS011;35268;42.642;23.308;2023-04-15T06:41:11;6.68;;;3.15;;
49392;SDS011;35268;42.642;23.308;2023-04-15T06:43:37;8.05;;;3.00;;
49392;SDS011;35268;42.642;23.308;2023-04-15T06:46:03;10.98;;;3.35;;
49392;SDS011;35268;42.642;23.308;2023-04-15T06:48:28;9.02;;;3.40;;
49392;SDS011;35268;42.642;23.308;2023-04-15T06:50:54;12.52;;;4.25;;
49392;SDS011;35268;42.642;23.308;2023-04-15T06:53:19;7.88;;;3.70;;
49392;SDS011;35268;42.642;23.308;2023-04-15T06:55:46;9.70;;;3.80;;
49392;SDS011;35268;42.642;23.308;2023-04-15T06:58:11;13.32;;;4.25;;
49392;SDS011;35268;42.642;23.308;2023-04-15T07:00:37;9.95;;;3.85;;
49392;SDS011;35268;42.642;23.308;2023-04-15T07:03:18;8.68;;;3.60;;
49392;SDS011;35268;42.642;23.308;2023-04-15T07:05:43;8.60;;;3.35;;
49392;SDS011;35268;42.642;23.308;2023-04-15T07:08:09;8.52;;;3.75;;
49392;SDS011;35268;42.642;23.308;2023-04-15T07:10:35;5.97;;;3.13;;
49392;SDS011;35268;42.642;23.308;2023-04-15T07:13:01;9.90;;;3.72;;
49392;SDS011;35268;42.642;23.308;2023-04-15T07:15:26;9.68;;;3.50;;
49392;SDS011;35268;42.642;23.308;2023-04-15T07:17:52;8.38;;;4.10;;
49392;SDS011;35268;42.642;23.308;2023-04-15T07:20:18;11.52;;;3.70;;
49392;SDS011;35268;42.642;23.308;2023-04-15T07:22:43;8.38;;;4.47;;
49392;SDS011;35268;42.642;23.308;2023-04-15T07:25:09;9.88;;;3.42;;
49392;SDS011;35268;42.642;23.308;2023-04-15T07:27:34;12.52;;;3.75;;
49392;SDS011;35268;42.642;23.308;2023-04-15T07:30:00;7.15;;;3.05;;
49392;SDS011;35268;42.642;23.308;2023-04-15T07:32:26;8.23;;;3.30;;
49392;SDS011;35268;42.642;23.308;2023-04-15T07:34:51;6.57;;;2.88;;
49392;SDS011;35268;42.642;23.308;2023-04-15T07:37:17;7.07;;;2.70;;
49392;SDS011;35268;42.642;23.308;2023-04-15T07:39:43;12.68;;;3.53;;
49392;SDS011;35268;42.642;23.308;2023-04-15T07:42:09;7.50;;;3.00;;
49392;SDS011;35268;42.642;23.308;2023-04-15T07:44:34;6.28;;;2.45;;
49392;SDS011;35268;42.642;23.308;2023-04-15T07:47:01;8.98;;;2.35;;
49392;SDS011;35268;42.642;23.308;2023-04-15T07:49:27;10.30;;;2.88;;
49392;SDS011;35268;42.642;23.308;2023-04-15T07:51:52;8.60;;;2.53;;
49392;SDS011;35268;42.642;23.308;2023-04-15T07:54:17;9.43;;;2.58;;
49392;SDS011;35268;42.642;23.308;2023-04-15T07:56:43;8.52;;;2.70;;
49392;SDS011;35268;42.642;23.308;2023-04-15T07:59:08;14.32;;;3.33;;
49392;SDS011;35268;42.642;23.308;2023-04-15T08:01:34;7.45;;;2.50;;
49392;SDS011;35268;42.642;23.308;2023-04-15T08:04:00;9.10;;;3.85;;
49392;SDS011;35268;42.642;23.308;2023-04-15T08:06:26;6.25;;;2.33;;
49392;SDS011;35268;42.642;23.308;2023-04-15T08:08:51;8.32;;;2.60;;
49392;SDS011;35268;42.642;23.308;2023-04-15T08:11:18;8.52;;;3.30;;
49392;SDS011;35268;42.642;23.308;2023-04-15T08:13:44;9.15;;;3.60;;
49392;SDS011;35268;42.642;23.308;2023-04-15T08:16:20;13.35;;;3.60;;
49392;SDS011;35268;42.642;23.308;2023-04-15T08:18:47;9.65;;;3.13;;
49392;SDS011;35268;42.642;23.308;2023-04-15T08:21:14;8.27;;;2.85;;
49392;SDS011;35268;42.642;23.308;2023-04-15T08:23:40;9.25;;;2.70;;
49392;SDS011;35268;42.642;23.308;2023-04-15T08:26:06;5.18;;;2.45;;
49392;SDS011;35268;42.642;23.308;2023-04-15T08:28:32;4.35;;;2.20;;
49392;SDS011;35268;42.642;23.308;2023-04-15T08:30:58;7.78;;;3.20;;
49392;SDS011;35268;42.642;23.308;2023-04-15T08:33:24;5.40;;;1.60;;
49392;SDS011;35268;42.642;23.308;2023-04-15T08:35:49;6.57;;;1.35;;
49392;SDS011;35268;42.642;23.308;2023-04-15T08:38:15;3.42;;;1.20;;
49392;SDS011;35268;42.642;23.308;2023-04-15T08:40:42;8.32;;;2.00;;
49392;SDS011;35268;42.642;23.308;2023-04-15T08:43:23;3.53;;;1.60;;
49392;SDS011;35268;42.642;23.308;2023-04-15T08:45:52;7.27;;;1.67;;
49392;SDS011;35268;42.642;23.308;2023-04-15T08:48:19;2.90;;;1.30;;
49392;SDS011;35268;42.642;23.308;2023-04-15T08:50:45;4.43;;;1.35;;
49392;SDS011;35268;42.642;23.308;2023-04-15T08:53:11;2.65;;;1.05;;
49392;SDS011;35268;42.642;23.308;2023-04-15T08:55:42;3.95;;;0.70;;
49392;SDS011;35268;42.642;23.308;2023-04-15T08:58:09;2.83;;;0.77;;
49392;SDS011;35268;42.642;23.308;2023-04-15T09:00:36;0.98;;;0.50;;
49392;SDS011;35268;42.642;23.308;2023-04-15T09:03:03;2.90;;;0.70;;
49392;SDS011;35268;42.642;23.308;2023-04-15T09:05:30;2.55;;;1.10;;
49392;SDS011;35268;42.642;23.308;2023-04-15T09:07:57;0.85;;;0.40;;
49392;SDS011;35268;42.642;23.308;2023-04-15T09:10:22;4.38;;;0.80;;
49392;SDS011;35268;42.642;23.308;2023-04-15T09:12:48;1.27;;;0.50;;
49392;SDS011;35268;42.642;23.308;2023-04-15T09:15:16;3.00;;;1.33;;
49392;SDS011;35268;42.642;23.308;2023-04-15T09:17:42;3.85;;;0.70;;
49392;SDS011;35268;42.642;23.308;2023-04-15T09:20:09;2.03;;;0.93;;
49392;SDS011;35268;42.642;23.308;2023-04-15T09:22:37;2.00;;;1.10;;
49392;SDS011;35268;42.642;23.308;2023-04-15T09:25:03;3.42;;;1.38;;
49392;SDS011;35268;42.642;23.308;2023-04-15T09:27:54;3.38;;;1.20;;
49392;SDS011;35268;42.642;23.308;2023-04-15T09:30:22;6.47;;;1.10;;
49392;SDS011;35268;42.642;23.308;2023-04-15T09:32:48;5.82;;;0.80;;
49392;SDS011;35268;42.642;23.308;2023-04-15T09:35:17;2.78;;;0.85;;
49392;SDS011;35268;42.642;23.308;2023-04-15T09:37:43;3.03;;;0.80;;
49392;SDS011;35268;42.642;23.308;2023-04-15T09:40:09;2.15;;;0.70;;
49392;SDS011;35268;42.642;23.308;2023-04-15T09:42:35;1.27;;;0.70;;
49392;SDS011;35268;42.642;23.308;2023-04-15T09:45:09;5.47;;;0.82;;
49392;SDS011;35268;42.642;23.308;2023-04-15T09:47:36;3.17;;;0.73;;
49392;SDS011;35268;42.642;23.308;2023-04-15T09:50:01;5.57;;;0.60;;
49392;SDS011;35268;42.642;23.308;2023-04-15T09:52:27;1.30;;;0.60;;
49392;SDS011;35268;42.642;23.308;2023-04-15T09:54:53;1.45;;;0.55;;
49392;SDS011;35268;42.642;23.308;2023-04-15T09:57:21;3.03;;;0.90;;
49392;SDS011;35268;42.642;23.308;2023-04-15T09:59:47;3.13;;;0.77;;
49392;SDS011;35268;42.642;23.308;2023-04-15T10:02:13;2.03;;;0.68;;
49392;SDS011;35268;42.642;23.308;2023-04-15T10:04:41;1.17;;;0.63;;
49392;SDS011;35268;42.642;23.308;2023-04-15T10:07:08;2.03;;;0.80;;
49392;SDS011;35268;42.642;23.308;2023-04-15T10:09:36;3.58;;;1.25;;
49392;SDS011;35268;42.642;23.308;2023-04-15T10:12:04;2.47;;;0.70;;
49392;SDS011;35268;42.642;23.308;2023-04-15T10:14:35;2.40;;;0.80;;
49392;SDS011;35268;42.642;23.308;2023-04-15T10:17:03;3.13;;;0.77;;
49392;SDS011;35268;42.642;23.308;2023-04-15T10:19:33;4.63;;;0.98;;
49392;SDS011;35268;42.642;23.308;2023-04-15T10:22:01;3.40;;;0.65;;
49392;SDS011;35268;42.642;23.308;2023-04-15T10:24:27;1.45;;;0.60;;
49392;SDS011;35268;42.642;23.308;2023-04-15T10:26:52;2.25;;;0.82;;
49392;SDS011;35268;42.642;23.308;2023-04-15T10:29:19;3.58;;;0.90;;
49392;SDS011;35268;42.642;23.308;2023-04-15T10:31:44;2.60;;;0.63;;
49392;SDS011;35268;42.642;23.308;2023-04-15T10:34:10;1.67;;;0.70;;
49392;SDS011;35268;42.642;23.308;2023-04-15T10:36:37;1.92;;;0.80;;
49392;SDS011;35268;42.642;23.308;2023-04-15T10:39:09;4.13;;;0.80;;
49392;SDS011;35268;42.642;23.308;2023-04-15T10:44:41;3.30;;;0.70;;
49392;SDS011;35268;42.642;23.308;2023-04-15T10:47:14;4.03;;;0.77;;
49392;SDS011;35268;42.642;23.308;2023-04-15T10:49:48;3.85;;;1.02;;
49392;SDS011;35268;42.642;23.308;2023-04-15T10:52:22;4.07;;;0.80;;
49392;SDS011;35268;42.642;23.308;2023-04-15T10:54:49;8.32;;;1.58;;
49392;SDS011;35268;42.642;23.308;2023-04-15T10:57:27;2.47;;;0.70;;
49392;SDS011;35268;42.642;23.308;2023-04-15T11:00:09;1.73;;;0.70;;
49392;SDS011;35268;42.642;23.308;2023-04-15T11:02:43;1.25;;;0.60;;
49392;SDS011;35268;42.642;23.308;2023-04-15T11:05:16;2.33;;;0.68;;
49392;SDS011;35268;42.642;23.308;2023-04-15T11:12:46;3.33;;;0.68;;
49392;SDS011;35268;42.642;23.308;2023-04-15T11:20:44;2.13;;;0.65;;
49392;SDS011;35268;42.642;23.308;2023-04-15T11:23:10;3.30;;;0.63;;
49392;SDS011;35268;42.642;23.308;2023-04-15T11:25:36;2.40;;;0.65;;
49392;SDS011;35268;42.642;23.308;2023-04-15T11:28:02;3.47;;;0.65;;
49392;SDS011;35268;42.642;23.308;2023-04-15T11:30:31;1.38;;;0.57;;
49392;SDS011;35268;42.642;23.308;2023-04-15T11:33:03;2.40;;;0.60;;
49392;SDS011;35268;42.642;23.308;2023-04-15T11:35:30;1.90;;;0.60;;
49392;SDS011;35268;42.642;23.308;2023-04-15T11:37:56;4.72;;;1.02;;
49392;SDS011;35268;42.642;23.308;2023-04-15T11:40:26;4.72;;;0.70;;
49392;SDS011;35268;42.642;23.308;2023-04-15T11:45:53;1.75;;;0.50;;
49392;SDS011;35268;42.642;23.308;2023-04-15T11:48:27;2.17;;;0.45;;
49392;SDS011;35268;42.642;23.308;2023-04-15T11:50:56;4.13;;;0.98;;
49392;SDS011;35268;42.642;23.308;2023-04-15T11:53:23;2.20;;;0.85;;
49392;SDS011;35268;42.642;23.308;2023-04-15T11:55:59;6.05;;;1.17;;
49392;SDS011;35268;42.642;23.308;2023-04-15T11:58:25;4.43;;;0.90;;
49392;SDS011;35268;42.642;23.308;2023-04-15T12:00:56;1.85;;;0.60;;
49392;SDS011;35268;42.642;23.308;2023-04-15T12:03:27;2.70;;;0.80;;
49392;SDS011;35268;42.642;23.308;2023-04-15T12:06:12;3.22;;;0.88;;
49392;SDS011;35268;42.642;23.308;2023-04-15T12:11:37;1.33;;;0.73;;
49392;SDS011;35268;42.642;23.308;2023-04-15T12:14:20;2.25;;;0.60;;
49392;SDS011;35268;42.642;23.308;2023-04-15T12:16:56;4.22;;;0.73;;
49392;SDS011;35268;42.642;23.308;2023-04-15T12:19:27;4.43;;;0.50;;
49392;SDS011;35268;42.642;23.308;2023-04-15T12:21:57;3.38;;;0.77;;
49392;SDS011;35268;42.642;23.308;2023-04-15T12:24:24;1.88;;;0.90;;
49392;SDS011;35268;42.642;23.308;2023-04-15T12:26:51;1.67;;;0.65;;
49392;SDS011;35268;42.642;23.308;2023-04-15T12:29:18;3.25;;;0.70;;
49392;SDS011;35268;42.642;23.308;2023-04-15T12:34:26;2.70;;;0.70;;
49392;SDS011;35268;42.642;23.308;2023-04-15T12:36:56;1.23;;;0.52;;
49392;SDS011;35268;42.642;23.308;2023-04-15T12:39:23;1.55;;;0.43;;
49392;SDS011;35268;42.642;23.308;2023-04-15T12:41:50;3.15;;;0.80;;
49392;SDS011;35268;42.642;23.308;2023-04-15T12:44:16;4.97;;;1.13;;
49392;SDS011;35268;42.642;23.308;2023-04-15T12:46:42;2.05;;;0.55;;
49392;SDS011;35268;42.642;23.308;2023-04-15T12:49:08;5.13;;;1.42;;
49392;SDS011;35268;42.642;23.308;2023-04-15T12:51:33;3.25;;;1.10;;
49392;SDS011;35268;42.642;23.308;2023-04-15T12:53:59;1.25;;;0.40;;
49392;SDS011;35268;42.642;23.308;2023-04-15T12:56:24;2.75;;;0.55;;
49392;SDS011;35268;42.642;23.308;2023-04-15T12:58:50;1.67;;;0.68;;
49392;SDS011;35268;42.642;23.308;2023-04-15T13:01:16;2.72;;;0.65;;
49392;SDS011;35268;42.642;23.308;2023-04-15T13:03:42;1.80;;;0.70;;
49392;SDS011;35268;42.642;23.308;2023-04-15T13:06:08;1.85;;;0.60;;
49392;SDS011;35268;42.642;23.308;2023-04-15T13:08:33;2.63;;;0.50;;
49392;SDS011;35268;42.642;23.308;2023-04-15T13:10:58;3.88;;;0.60;;
49392;SDS011;35268;42.642;23.308;2023-04-15T13:13:24;1.40;;;0.60;;
49392;SDS011;35268;42.642;23.308;2023-04-15T13:15:50;1.45;;;0.38;;
49392;SDS011;35268;42.642;23.308;2023-04-15T13:18:15;1.38;;;0.50;;
49392;SDS011;35268;42.642;23.308;2023-04-15T13:20:41;5.18;;;0.82;;
49392;SDS011;35268;42.642;23.308;2023-04-15T13:23:06;1.77;;;0.40;;
49392;SDS011;35268;42.642;23.308;2023-04-15T13:25:32;1.25;;;0.50;;
49392;SDS011;35268;42.642;23.308;2023-04-15T13:27:57;0.75;;;0.40;;
49392;SDS011;35268;42.642;23.308;2023-04-15T13:30:23;1.45;;;0.50;;
49392;SDS011;35268;42.642;23.308;2023-04-15T13:32:48;3.25;;;0.68;;
49392;SDS011;35268;42.642;23.308;2023-04-15T13:35:15;6.57;;;0.70;;
49392;SDS011;35268;42.642;23.308;2023-04-15T13:37:40;1.95;;;0.50;;
49392;SDS011;35268;42.642;23.308;2023-04-15T13:40:06;1.50;;;0.55;;
49392;SDS011;35268;42.642;23.308;2023-04-15T13:42:32;1.20;;;0.65;;
49392;SDS011;35268;42.642;23.308;2023-04-15T13:44:57;4.38;;;0.52;;
49392;SDS011;35268;42.642;23.308;2023-04-15T13:47:22;2.53;;;0.77;;
49392;SDS011;35268;42.642;23.308;2023-04-15T13:49:48;2.97;;;0.60;;
49392;SDS011;35268;42.642;23.308;2023-04-15T13:52:14;1.70;;;0.52;;
49392;SDS011;35268;42.642;23.308;2023-04-15T13:54:39;1.45;;;0.30;;
49392;SDS011;35268;42.642;23.308;2023-04-15T13:57:05;3.33;;;0.80;;
49392;SDS011;35268;42.642;23.308;2023-04-15T13:59:33;2.88;;;0.40;;
49392;SDS011;35268;42.642;23.308;2023-04-15T14:01:59;1.00;;;0.50;;
49392;SDS011;35268;42.642;23.308;2023-04-15T14:04:24;1.80;;;0.50;;
49392;SDS011;35268;42.642;23.308;2023-04-15T14:06:50;2.22;;;0.68;;
49392;SDS011;35268;42.642;23.308;2023-04-15T14:09:15;1.75;;;0.60;;
49392;SDS011;35268;42.642;23.308;2023-04-15T14:11:41;2.40;;;0.50;;
49392;SDS011;35268;42.642;23.308;2023-04-15T14:14:07;2.50;;;0.70;;
49392;SDS011;35268;42.642;23.308;2023-04-15T14:16:32;1.88;;;0.47;;
49392;SDS011;35268;42.642;23.308;2023-04-15T14:18:58;2.10;;;0.60;;
49392;SDS011;35268;42.642;23.308;2023-04-15T14:21:24;2.92;;;0.80;;
49392;SDS011;35268;42.642;23.308;2023-04-15T14:23:51;2.25;;;0.63;;
49392;SDS011;35268;42.642;23.308;2023-04-15T14:26:17;4.05;;;0.68;;
49392;SDS011;35268;42.642;23.308;2023-04-15T14:28:43;4.25;;;0.75;;
49392;SDS011;35268;42.642;23.308;2023-04-15T14:31:09;4.07;;;0.65;;
49392;SDS011;35268;42.642;23.308;2023-04-15T14:33:34;4.60;;;0.73;;
49392;SDS011;35268;42.642;23.308;2023-04-15T14:36:00;1.85;;;0.50;;
49392;SDS011;35268;42.642;23.308;2023-04-15T14:38:26;5.75;;;0.60;;
49392;SDS011;35268;42.642;23.308;2023-04-15T14:40:51;2.38;;;0.65;;
49392;SDS011;35268;42.642;23.308;2023-04-15T14:43:17;2.47;;;0.70;;
49392;SDS011;35268;42.642;23.308;2023-04-15T14:45:42;4.88;;;1.05;;
49392;SDS011;35268;42.642;23.308;2023-04-15T14:48:08;2.53;;;0.80;;
49392;SDS011;35268;42.642;23.308;2023-04-15T14:50:34;4.03;;;0.82;;
49392;SDS011;35268;42.642;23.308;2023-04-15T14:53:00;1.77;;;0.50;;